Time;durP1;ratioP1;P1;durP2;ratioP2;P2;SDS_P1;SDS_P2;PMS_P1;PMS_P2;Temp;Humidity;BMP_temperature;BMP_pressure;BME280_temperature;BME280_humidity;BME280_pressure;Samples;Min_cycle;Max_cycle;Signal;HPM_P1;HPM_P2
2022/12/01 00:00:20;;;;;;;;;;;5.60;99.90;;;;;;5087016;28;19924;-89
2022/12/01 00:06:22;;;;;;;;;;;4.40;99.90;;;;;;5109731;28;20229;-89
2022/12/01 00:11:55;;;;;;;;;;;;;;;;;;;;;
2022/12/01 00:14:44;;;;;;;;;;;4.70;99.90;;;;;;5099988;28;19928;-89
2022/12/01 00:17:10;;;;;;;;;;;5.80;99.90;;;;;;5083265;28;19931;-87
2022/12/01 00:19:36;;;;;;;;;;;5.30;99.90;;;;;;5099713;28;19928;-87
2022/12/01 00:22:01;;;;;;;;;;;6.60;99.90;;;;;;5082846;28;19924;-88
2022/12/01 00:24:29;;;;;;;;;;;5.50;99.90;;;;;;5081643;28;19928;-88
2022/12/01 00:26:57;;;;;;;;;;;4.90;99.90;;;;;;5082092;28;19928;-87
2022/12/01 00:29:28;;;;;;;;;;;6.40;99.90;;;;;;5081926;28;20267;-87
2022/12/01 00:31:54;;;;;;;;;;;5.30;99.90;;;;;;5082808;28;19931;-87
2022/12/01 00:34:26;;;;;;;;;;;5.30;99.90;;;;;;5081895;28;19924;-87
2022/12/01 00:36:57;;;;;;;;;;;5.30;99.90;;;;;;5082660;28;19931;-87
2022/12/01 00:39:23;;;;;;;;;;;5.30;99.90;;;;;;5098649;28;19970;-87
2022/12/01 00:41:53;;;;;;;;;;;5.40;99.90;;;;;;5082057;28;19928;-87
2022/12/01 00:44:29;;;;;;;;;;;6.30;99.90;;;;;;5082857;28;19966;-87
2022/12/01 00:46:57;;;;;;;;;;;5.60;99.90;;;;;;5082941;28;19931;-88
2022/12/01 00:49:33;;;;;;;;;;;5.40;99.90;;;;;;5081998;28;19924;-87
2022/12/01 00:52:01;;;;;;;;;;;5.30;99.90;;;;;;5081545;28;19928;-88
2022/12/01 00:54:38;;;;;;;;;;;6.20;99.90;;;;;;5098301;28;20015;-87
2022/12/01 00:57:08;;;;;;;;;;;5.40;99.90;;;;;;5083060;28;19924;-88
2022/12/01 00:59:36;;;;;;;;;;;5.30;99.90;;;;;;5065646;28;20041;-87
2022/12/01 01:02:05;;;;;;;;;;;5.40;99.90;;;;;;5081696;28;19973;-87
2022/12/01 01:04:32;;;;;;;;;;;5.50;99.90;;;;;;5098581;28;20024;-88
2022/12/01 01:06:58;;;;;;;;;;;6.10;99.90;;;;;;5079384;28;19936;-88
2022/12/01 01:09:36;;;;;;;;;;;5.30;99.90;;;;;;5078769;28;19944;-88
2022/12/01 01:12:04;;;;;;;;;;;5.40;99.90;;;;;;5062303;28;20367;-87
2022/12/01 01:14:32;;;;;;;;;;;5.30;99.90;;;;;;5078251;28;19924;-87
2022/12/01 01:17:01;;;;;;;;;;;6.00;99.90;;;;;;5078554;28;20303;-87
2022/12/01 01:19:27;;;;;;;;;;;6.60;99.90;;;;;;5078444;28;19931;-88
2022/12/01 01:21:55;;;;;;;;;;;5.30;99.90;;;;;;5079160;28;20349;-87
2022/12/01 01:24:26;;;;;;;;;;;5.30;99.90;;;;;;5078037;28;19924;-87
2022/12/01 01:26:59;;;;;;;;;;;5.30;99.90;;;;;;5078792;28;19974;-87
2022/12/01 01:29:27;;;;;;;;;;;5.30;99.90;;;;;;5078623;28;20034;-87
2022/12/01 01:31:58;;;;;;;;;;;5.40;99.90;;;;;;5077874;28;19924;-88
2022/12/01 01:34:24;;;;;;;;;;;6.30;99.90;;;;;;5078840;28;19924;-87
2022/12/01 01:36:49;;;;;;;;;;;6.10;99.90;;;;;;5094421;28;20339;-87
2022/12/01 01:39:15;;;;;;;;;;;6.10;99.90;;;;;;5077762;28;19924;-87
2022/12/01 01:41:49;;;;;;;;;;;6.40;99.90;;;;;;5078386;28;19928;-88
2022/12/01 01:44:36;;;;;;;;;;;5.40;99.90;;;;;;5062304;28;20401;-87
2022/12/01 01:47:09;;;;;;;;;;;5.00;99.90;;;;;;5078130;28;20007;-88
2022/12/01 01:49:35;;;;;;;;;;;4.80;99.90;;;;;;5078644;28;19945;-87
2022/12/01 01:52:04;;;;;;;;;;;5.40;99.90;;;;;;5077759;28;20076;-87
2022/12/01 01:54:42;;;;;;;;;;;5.30;99.90;;;;;;5077583;28;19925;-88
2022/12/01 01:57:09;;;;;;;;;;;5.30;99.90;;;;;;5077951;28;20028;-87
2022/12/01 01:59:45;;;;;;;;;;;5.30;99.90;;;;;;5077410;28;20398;-87
2022/12/01 02:02:21;;;;;;;;;;;6.10;99.90;;;;;;5077445;28;19924;-88
2022/12/01 02:04:50;;;;;;;;;;;5.60;99.90;;;;;;5077936;28;20402;-89
2022/12/01 02:07:25;;;;;;;;;;;5.50;99.90;;;;;;5076526;28;20284;-87
2022/12/01 02:09:58;;;;;;;;;;;5.20;99.90;;;;;;5077569;28;20364;-88
2022/12/01 02:12:32;;;;;;;;;;;5.90;99.90;;;;;;5077561;28;19928;-87
2022/12/01 02:15:21;;;;;;;;;;;5.20;99.90;;;;;;5077046;28;19928;-88
2022/12/01 02:17:50;;;;;;;;;;;5.20;99.90;;;;;;5071785;28;19932;-88
2022/12/01 02:20:25;;;;;;;;;;;5.30;99.90;;;;;;5075987;28;20010;-87
2022/12/01 02:22:50;;;;;;;;;;;5.40;99.90;;;;;;5077703;28;19931;-88
2022/12/01 02:25:19;;;;;;;;;;;5.30;99.90;;;;;;5077006;28;20284;-88
2022/12/01 02:27:51;;;;;;;;;;;4.40;99.90;;;;;;5077462;28;19970;-87
2022/12/01 02:30:23;;;;;;;;;;;4.70;99.90;;;;;;5076634;28;20429;-87
2022/12/01 02:33:08;;;;;;;;;;;5.30;99.90;;;;;;5076645;28;19931;-88
2022/12/01 02:35:41;;;;;;;;;;;5.30;99.90;;;;;;5076783;28;19928;-87
2022/12/01 02:38:26;;;;;;;;;;;5.20;99.90;;;;;;5077185;28;20352;-87
2022/12/01 02:41:33;;;;;;;;;;;4.40;99.90;;;;;;5077067;28;19930;-88
2022/12/01 02:44:07;;;;;;;;;;;6.30;99.90;;;;;;5091805;28;19927;-87
2022/12/01 02:46:40;;;;;;;;;;;5.20;99.90;;;;;;5076706;28;19924;-87
2022/12/01 02:49:12;;;;;;;;;;;5.20;99.90;;;;;;5076971;28;19967;-87
2022/12/01 02:51:43;;;;;;;;;;;5.30;99.90;;;;;;5076181;28;20397;-88
2022/12/01 02:54:13;;;;;;;;;;;5.30;99.90;;;;;;5092737;28;19924;-87
2022/12/01 02:56:41;;;;;;;;;;;6.30;99.90;;;;;;5093448;28;20351;-87
2022/12/01 02:59:18;;;;;;;;;;;5.30;99.90;;;;;;5092798;28;20372;-88
2022/12/01 03:01:44;;;;;;;;;;;5.20;99.90;;;;;;5076749;28;19924;-88
2022/12/01 03:04:31;;;;;;;;;;;5.20;99.90;;;;;;5075686;28;20430;-87
2022/12/01 03:07:08;;;;;;;;;;;5.20;99.90;;;;;;5077256;28;19982;-89
2022/12/01 03:09:45;;;;;;;;;;;4.30;99.90;;;;;;5075464;28;19981;-87
2022/12/01 03:12:19;;;;;;;;;;;5.30;99.90;;;;;;5093453;28;20310;-87
2022/12/01 03:14:53;;;;;;;;;;;5.20;99.90;;;;;;5075279;28;19924;-87
2022/12/01 03:17:23;;;;;;;;;;;6.10;99.90;;;;;;5076376;28;19924;-87
2022/12/01 03:19:58;;;;;;;;;;;5.20;99.90;;;;;;5076295;28;19924;-88
2022/12/01 03:22:49;;;;;;;;;;;6.50;99.90;;;;;;5076043;28;20402;-87
2022/12/01 03:25:25;;;;;;;;;;;5.30;99.90;;;;;;5073030;28;19924;-87
2022/12/01 03:27:55;;;;;;;;;;;4.90;99.90;;;;;;5076901;28;19975;-87
2022/12/01 03:30:24;;;;;;;;;;;5.30;99.90;;;;;;5076038;28;20363;-87
2022/12/01 03:32:56;;;;;;;;;;;5.10;99.90;;;;;;5075703;28;20368;-88
2022/12/01 03:35:23;;;;;;;;;;;5.10;99.90;;;;;;5093224;28;19924;-87
2022/12/01 03:37:57;;;;;;;;;;;5.10;99.90;;;;;;5075152;28;20435;-87
2022/12/01 03:40:36;;;;;;;;;;;;;;;;;;;;;
2022/12/01 03:43:06;;;;;;;;;;;5.10;99.90;;;;;;5092144;28;20420;-88
2022/12/01 03:45:41;;;;;;;;;;;5.60;99.90;;;;;;5093265;28;19947;-87
2022/12/01 03:48:07;;;;;;;;;;;5.10;99.90;;;;;;5075593;28;19924;-87
2022/12/01 03:50:40;;;;;;;;;;;5.10;99.90;;;;;;5076099;28;19971;-88
2022/12/01 03:53:31;;;;;;;;;;;6.20;99.90;;;;;;5092331;28;20295;-87
2022/12/01 03:56:01;;;;;;;;;;;5.10;99.90;;;;;;5073046;28;19931;-88
2022/12/01 03:58:47;;;;;;;;;;;5.10;99.90;;;;;;5074869;28;19998;-88
2022/12/01 04:01:13;;;;;;;;;;;5.20;99.90;;;;;;5067991;28;19974;-89
2022/12/01 04:03:41;;;;;;;;;;;6.30;99.90;;;;;;5075460;28;19939;-88
2022/12/01 04:06:09;;;;;;;;;;;5.20;99.90;;;;;;5075262;28;20061;-87
2022/12/01 04:08:36;;;;;;;;;;;6.30;99.90;;;;;;5091704;28;19924;-88
2022/12/01 04:12:28;;;;;;;;;;;5.20;99.90;;;;;;5075694;28;19935;-88
2022/12/01 04:13:55;;;;;;;;;;;5.10;99.90;;;;;;5092469;28;19927;-88
2022/12/01 04:16:28;;;;;;;;;;;6.30;99.90;;;;;;5081638;28;20248;-88
2022/12/01 04:18:54;;;;;;;;;;;6.20;99.90;;;;;;5088803;28;19994;-88
2022/12/01 04:21:20;;;;;;;;;;;6.40;99.90;;;;;;5092279;28;19920;-89
2022/12/01 04:24:01;;;;;;;;;;;5.20;99.90;;;;;;5099420;28;19923;-88
2022/12/01 04:26:28;;;;;;;;;;;5.20;99.90;;;;;;5099565;28;19912;-90
2022/12/01 04:28:56;;;;;;;;;;;5.80;99.90;;;;;;5112601;28;20026;-89
2022/12/01 04:31:22;;;;;;;;;;;6.10;99.90;;;;;;5100904;28;20027;-88
2022/12/01 04:33:50;;;;;;;;;;;5.20;99.90;;;;;;5100637;28;19975;-89
2022/12/01 04:36:20;;;;;;;;;;;5.20;99.90;;;;;;5065123;28;19963;-87
2022/12/01 04:39:06;;;;;;;;;;;5.20;99.90;;;;;;5065076;28;19924;-88
2022/12/01 04:41:37;;;;;;;;;;;5.20;99.90;;;;;;5080851;28;19924;-88
2022/12/01 04:44:06;;;;;;;;;;;6.20;99.90;;;;;;5096695;28;19928;-87
2022/12/01 04:46:42;;;;;;;;;;;5.20;99.90;;;;;;5079281;28;19938;-87
2022/12/01 04:49:07;;;;;;;;;;;5.30;99.90;;;;;;5078765;28;19924;-87
2022/12/01 04:51:33;;;;;;;;;;;5.20;99.90;;;;;;5079138;28;19925;-88
2022/12/01 04:54:10;;;;;;;;;;;;;;;;;;;;;
2022/12/01 04:56:36;;;;;;;;;;;5.20;99.90;;;;;;5095487;28;20029;-88
2022/12/01 04:59:01;;;;;;;;;;;5.20;99.90;;;;;;5078981;28;19928;-87
2022/12/01 05:01:27;;;;;;;;;;;5.30;99.90;;;;;;5079049;28;19924;-87
2022/12/01 05:03:55;;;;;;;;;;;5.50;99.90;;;;;;5079032;28;20023;-87
2022/12/01 05:06:22;;;;;;;;;;;5.20;99.90;;;;;;5061597;28;19967;-89
2022/12/01 05:08:53;;;;;;;;;;;5.20;99.90;;;;;;5095659;28;19938;-87
2022/12/01 05:11:21;;;;;;;;;;;6.00;99.90;;;;;;5078097;28;20018;-87
2022/12/01 05:13:52;;;;;;;;;;;5.10;99.90;;;;;;5096229;28;19924;-87
2022/12/01 05:16:19;;;;;;;;;;;5.40;99.90;;;;;;5078809;28;19928;-88
2022/12/01 05:18:49;;;;;;;;;;;5.40;99.90;;;;;;5078278;28;19924;-87
2022/12/01 05:21:17;;;;;;;;;;;5.20;99.90;;;;;;5078348;28;19924;-87
2022/12/01 05:23:53;;;;;;;;;;;5.10;99.90;;;;;;5078654;28;20011;-88
2022/12/01 05:26:24;;;;;;;;;;;6.20;99.90;;;;;;5096011;28;19924;-88
2022/12/01 05:28:54;;;;;;;;;;;5.10;99.90;;;;;;5078955;28;19940;-88
2022/12/01 05:31:22;;;;;;;;;;;5.10;99.90;;;;;;5062054;28;20013;-87
2022/12/01 05:34:00;;;;;;;;;;;5.00;99.90;;;;;;5077989;28;19927;-87
2022/12/01 05:36:26;;;;;;;;;;;5.00;99.90;;;;;;5078901;28;19924;-87
2022/12/01 05:39:02;;;;;;;;;;;;;;;;;;;;;
2022/12/01 05:41:28;;;;;;;;;;;5.80;99.90;;;;;;5095622;28;20001;-87
2022/12/01 05:43:53;;;;;;;;;;;4.70;99.90;;;;;;5077959;28;19924;-87
2022/12/01 05:46:19;;;;;;;;;;;4.50;99.90;;;;;;5077859;28;19924;-87
2022/12/01 05:48:46;;;;;;;;;;;4.70;99.90;;;;;;5078090;28;20014;-87
2022/12/01 05:51:17;;;;;;;;;;;3.80;99.90;;;;;;5077254;28;19931;-87
2022/12/01 05:53:43;;;;;;;;;;;3.20;99.90;;;;;;5078089;28;19924;-87
2022/12/01 05:56:12;;;;;;;;;;;4.40;99.90;;;;;;5061554;28;19924;-87
2022/12/01 05:58:40;;;;;;;;;;;3.40;99.90;;;;;;5094564;28;20364;-87
2022/12/01 06:01:08;;;;;;;;;;;4.20;99.90;;;;;;5077457;28;19978;-87
2022/12/01 06:03:42;;;;;;;;;;;5.30;99.90;;;;;;5077788;28;19924;-87
2022/12/01 06:06:10;;;;;;;;;;;5.10;99.90;;;;;;5095186;28;19990;-87
2022/12/01 06:08:35;;;;;;;;;;;4.90;99.90;;;;;;5076795;28;19985;-87
2022/12/01 06:11:01;;;;;;;;;;;5.00;99.90;;;;;;5077704;28;20034;-88
2022/12/01 06:13:37;;;;;;;;;;;3.70;99.90;;;;;;5094284;28;19947;-87
2022/12/01 06:16:04;;;;;;;;;;;3.60;99.90;;;;;;5077668;28;19931;-87
2022/12/01 06:18:31;;;;;;;;;;;3.50;99.90;;;;;;5077222;28;20020;-87
2022/12/01 06:21:02;;;;;;;;;;;3.50;99.90;;;;;;5094968;28;19962;-87
2022/12/01 06:23:30;;;;;;;;;;;3.50;99.90;;;;;;5094339;28;19934;-87
2022/12/01 06:25:56;;;;;;;;;;;5.10;99.90;;;;;;5077665;28;19924;-87
2022/12/01 06:28:26;;;;;;;;;;;3.30;99.90;;;;;;5076881;28;20260;-87
2022/12/01 06:30:52;;;;;;;;;;;2.10;99.90;;;;;;5077202;28;19931;-87
2022/12/01 06:33:17;;;;;;;;;;;4.60;99.90;;;;;;5077000;28;19928;-87
2022/12/01 06:35:43;;;;;;;;;;;3.10;99.90;;;;;;5077304;28;19928;-88
2022/12/01 06:38:12;;;;;;;;;;;3.20;99.90;;;;;;5077103;28;19961;-87
2022/12/01 06:40:37;;;;;;;;;;;2.50;99.90;;;;;;5077060;28;19924;-88
2022/12/01 06:43:05;;;;;;;;;;;2.60;99.90;;;;;;5059686;28;19924;-88
2022/12/01 06:45:37;;;;;;;;;;;3.80;99.90;;;;;;5094115;28;20387;-88
2022/12/01 06:48:08;;;;;;;;;;;3.20;99.90;;;;;;5076747;28;19923;-89
2022/12/01 06:50:39;;;;;;;;;;;2.30;99.90;;;;;;5061114;28;19924;-89
2022/12/01 06:53:05;;;;;;;;;;;2.10;99.90;;;;;;5060033;28;19928;-87
2022/12/01 06:55:33;;;;;;;;;;;2.90;99.90;;;;;;5076059;28;20035;-88
2022/12/01 06:58:01;;;;;;;;;;;4.20;99.90;;;;;;5076558;28;19947;-87
2022/12/01 07:00:37;;;;;;;;;;;3.90;99.90;;;;;;5059255;28;20279;-88
2022/12/01 07:03:03;;;;;;;;;;;3.00;99.90;;;;;;5076419;28;19975;-87
2022/12/01 07:05:31;;;;;;;;;;;2.90;99.90;;;;;;5075588;28;19924;-88
2022/12/01 07:08:06;;;;;;;;;;;3.90;99.90;;;;;;5075666;28;19946;-87
2022/12/01 07:10:36;;;;;;;;;;;2.80;99.90;;;;;;5076600;28;20323;-87
2022/12/01 07:13:05;;;;;;;;;;;2.70;99.90;;;;;;5076398;28;19931;-86
2022/12/01 07:15:33;;;;;;;;;;;2.70;99.90;;;;;;5075605;28;20014;-86
2022/12/01 07:17:59;;;;;;;;;;;3.70;99.90;;;;;;5076104;28;19924;-85
2022/12/01 07:23:25;;;;;;;;;;;2.60;99.90;;;;;;5079226;28;19928;-87
2022/12/01 07:26:35;;;;;;;;;;;1.60;99.90;;;;;;5076053;28;20019;-87
2022/12/01 07:29:10;;;;;;;;;;;1.10;99.90;;;;;;5092981;28;19976;-87
2022/12/01 07:31:46;;;;;;;;;;;2.30;99.90;;;;;;5060889;28;19931;-88
2022/12/01 07:34:14;;;;;;;;;;;3.20;99.90;;;;;;5076350;28;19924;-87
2022/12/01 07:36:59;;;;;;;;;;;;;;;;;;;;;
2022/12/01 07:45:41;;;;;;;;;;;1.60;99.90;;;;;;5084790;28;19924;-85
2022/12/01 07:48:07;;;;;;;;;;;2.00;99.90;;;;;;5092791;28;19928;-85
2022/12/01 07:50:40;;;;;;;;;;;3.00;99.90;;;;;;5059174;28;19924;-86
2022/12/01 07:53:06;;;;;;;;;;;3.60;99.90;;;;;;5092396;28;20382;-86
2022/12/01 07:55:31;;;;;;;;;;;3.20;99.90;;;;;;5074846;28;19924;-86
2022/12/01 07:58:03;;;;;;;;;;;3.20;99.90;;;;;;5075827;28;19967;-86
2022/12/01 08:00:34;;;;;;;;;;;2.60;99.90;;;;;;5075303;28;19967;-88
2022/12/01 08:03:20;;;;;;;;;;;2.70;99.90;;;;;;5076303;28;19930;-87
2022/12/01 08:09:20;;;;;;;;;;;1.40;99.90;;;;;;5058028;28;20367;-87
2022/12/01 08:11:51;;;;;;;;;;;2.90;99.90;;;;;;5076488;28;19932;-87
2022/12/01 08:14:29;;;;;;;;;;;1.30;99.90;;;;;;5089701;28;20283;-88
2022/12/01 08:17:03;;;;;;;;;;;1.70;99.90;;;;;;5093313;28;19928;-87
2022/12/01 08:19:51;;;;;;;;;;;1.20;99.90;;;;;;5097525;28;19931;-88
2022/12/01 08:22:20;;;;;;;;;;;1.30;99.90;;;;;;5078782;28;20295;-87
2022/12/01 08:24:52;;;;;;;;;;;1.30;99.90;;;;;;5063430;28;19969;-89
2022/12/01 08:27:20;;;;;;;;;;;1.40;99.90;;;;;;5079683;28;20356;-88
2022/12/01 08:29:49;;;;;;;;;;;1.10;99.90;;;;;;5079154;28;19924;-88
2022/12/01 08:32:20;;;;;;;;;;;2.40;99.90;;;;;;5079230;28;19924;-86
2022/12/01 08:34:52;;;;;;;;;;;1.10;99.90;;;;;;5094951;28;19967;-86
2022/12/01 08:37:23;;;;;;;;;;;1.70;99.90;;;;;;5062478;28;19928;-88
2022/12/01 08:39:58;;;;;;;;;;;1.50;99.90;;;;;;5096151;28;19924;-87
2022/12/01 08:42:27;;;;;;;;;;;1.30;99.90;;;;;;5062700;28;20090;-88
2022/12/01 08:45:01;;;;;;;;;;;0.70;99.90;;;;;;5079016;28;19963;-87
2022/12/01 08:47:29;;;;;;;;;;;0.90;99.90;;;;;;5062700;28;19993;-88
2022/12/01 08:50:13;;;;;;;;;;;;;;;;;;;;;
2022/12/01 08:53:07;;;;;;;;;;;1.20;99.90;;;;;;5095186;28;19931;-87
2022/12/01 08:55:38;;;;;;;;;;;1.20;99.90;;;;;;5078414;28;19924;-86
2022/12/01 08:58:10;;;;;;;;;;;0.10;99.90;;;;;;5095153;28;20358;-86
2022/12/01 09:00:38;;;;;;;;;;;1.20;99.90;;;;;;5096604;28;19977;-89
2022/12/01 09:03:03;;;;;;;;;;;0.50;99.90;;;;;;5085688;28;19916;-90
2022/12/01 09:05:29;;;;;;;;;;;1.30;99.90;;;;;;5085523;28;19973;-89
2022/12/01 09:11:01;;;;;;;;;;;1.30;99.90;;;;;;5096177;28;19946;-88
2022/12/01 09:13:30;;;;;;;;;;;1.30;99.90;;;;;;5075660;28;19924;-87
2022/12/01 09:16:09;;;;;;;;;;;1.50;99.90;;;;;;5086941;28;19975;-87
2022/12/01 09:18:35;;;;;;;;;;;1.60;99.90;;;;;;5083097;28;19928;-87
2022/12/01 09:21:36;;;;;;;;;;;2.00;99.90;;;;;;5081035;28;19979;-87
2022/12/01 09:24:19;;;;;;;;;;;1.70;99.90;;;;;;5075391;28;19977;-88
2022/12/01 09:27:02;;;;;;;;;;;1.90;99.90;;;;;;5079490;28;19924;-88
2022/12/01 09:29:30;;;;;;;;;;;1.00;99.90;;;;;;5061086;28;19932;-89
2022/12/01 09:32:09;;;;;;;;;;;1.20;99.90;;;;;;5078199;28;19977;-88
2022/12/01 09:34:41;;;;;;;;;;;2.10;99.90;;;;;;5078297;28;19925;-87
2022/12/01 09:37:20;;;;;;;;;;;1.30;99.90;;;;;;5094192;28;19924;-85
2022/12/01 09:39:51;;;;;;;;;;;2.10;99.90;;;;;;5061367;28;19925;-88
2022/12/01 09:45:38;;;;;;;;;;;1.50;99.90;;;;;;5095262;28;20024;-87
2022/12/01 09:48:29;;;;;;;;;;;2.50;99.90;;;;;;5078090;28;20037;-88
2022/12/01 09:50:57;;;;;;;;;;;1.40;99.90;;;;;;5077627;28;20376;-88
2022/12/01 09:53:32;;;;;;;;;;;2.60;99.90;;;;;;5077240;28;19924;-89
2022/12/01 09:56:30;;;;;;;;;;;2.80;99.90;;;;;;5077880;28;19928;-89
2022/12/01 09:59:24;;;;;;;;;;;2.90;99.90;;;;;;5077988;28;19924;-88
2022/12/01 10:01:59;;;;;;;;;;;3.00;99.90;;;;;;5076773;28;19928;-88
2022/12/01 10:04:52;;;;;;;;;;;;;;;;;;;;;
2022/12/01 10:07:40;;;;;;;;;;;2.30;99.90;;;;;;5093703;28;20302;-88
2022/12/01 10:10:31;;;;;;;;;;;2.70;99.90;;;;;;5077082;28;19931;-89
2022/12/01 10:13:17;;;;;;;;;;;;;;;;;;;;;
2022/12/01 10:16:06;;;;;;;;;;;;;;;;;;;;;
2022/12/01 10:18:54;;;;;;;;;;;2.90;99.90;;;;;;5093830;28;19931;-88
2022/12/01 10:21:47;;;;;;;;;;;3.70;99.90;;;;;;5076902;28;20026;-87
2022/12/01 10:24:31;;;;;;;;;;;3.70;99.90;;;;;;5093222;28;19978;-88
2022/12/01 10:27:21;;;;;;;;;;;3.80;99.90;;;;;;5077829;28;20282;-87
2022/12/01 10:30:00;;;;;;;;;;;3.90;99.90;;;;;;5093099;28;20019;-86
2022/12/01 10:32:46;;;;;;;;;;;4.10;99.90;;;;;;5092498;28;19931;-90
2022/12/01 10:38:31;;;;;;;;;;;3.50;99.90;;;;;;5094378;28;19924;-87
2022/12/01 10:41:10;;;;;;;;;;;4.70;99.90;;;;;;5092879;28;19931;-87
2022/12/01 10:43:59;;;;;;;;;;;4.90;99.90;;;;;;5063615;28;20236;-87
2022/12/01 10:46:37;;;;;;;;;;;4.90;99.90;;;;;;5076540;28;20451;-87
2022/12/01 10:49:17;;;;;;;;;;;5.10;99.90;;;;;;5090333;28;19931;-88
2022/12/01 10:52:35;;;;;;;;;;;4.50;99.90;;;;;;5064621;28;19970;-87
2022/12/01 10:55:25;;;;;;;;;;;5.90;99.90;;;;;;5076550;28;20464;-87
2022/12/01 10:57:54;;;;;;;;;;;5.30;99.90;;;;;;5074224;28;19924;-88
2022/12/01 11:00:33;;;;;;;;;;;5.50;99.90;;;;;;5076268;28;19935;-86
2022/12/01 11:03:14;;;;;;;;;;;5.50;99.90;;;;;;5093197;28;19924;-87
2022/12/01 11:05:41;;;;;;;;;;;6.50;99.90;;;;;;5076089;28;19923;-86
2022/12/01 11:08:27;;;;;;;;;;;5.60;99.90;;;;;;5075652;28;19981;-86
2022/12/01 11:10:55;;;;;;;;;;;5.50;99.90;;;;;;5076347;28;19924;-87
2022/12/01 11:13:31;;;;;;;;;;;5.30;99.90;;;;;;5059667;28;19924;-86
2022/12/01 11:16:08;;;;;;;;;;;5.40;99.90;;;;;;5088504;28;20001;-87
2022/12/01 11:18:35;;;;;;;;;;;5.30;99.90;;;;;;5076642;28;19997;-86
2022/12/01 11:21:04;;;;;;;;;;;5.30;99.90;;;;;;5075884;28;19927;-86
2022/12/01 11:23:33;;;;;;;;;;;5.30;99.90;;;;;;5075652;28;19977;-86
2022/12/01 11:26:09;;;;;;;;;;;6.10;99.90;;;;;;5075926;28;19924;-86
2022/12/01 11:28:36;;;;;;;;;;;5.30;99.90;;;;;;5076544;28;19931;-86
2022/12/01 11:31:05;;;;;;;;;;;6.00;99.90;;;;;;5076289;28;19924;-88
2022/12/01 11:33:35;;;;;;;;;;;5.10;99.90;;;;;;5075748;28;19924;-86
2022/12/01 11:36:01;;;;;;;;;;;4.80;99.90;;;;;;5075470;28;19924;-85
2022/12/01 11:45:31;;;;;;;;;;;5.40;99.90;;;;;;5093327;28;19969;-86
2022/12/01 11:48:38;;;;;;;;;;;5.40;99.90;;;;;;5076359;28;19961;-88
2022/12/01 11:54:29;;;;;;;;;;;5.50;99.90;;;;;;4972129;28;19933;-88
2022/12/01 11:56:55;;;;;;;;;;;5.50;99.90;;;;;;4977939;28;19926;-86
2022/12/01 11:59:37;;;;;;;;;;;5.50;99.90;;;;;;5050022;28;19925;-87
2022/12/01 12:02:43;;;;;;;;;;;5.60;99.90;;;;;;5075458;28;20359;-88
2022/12/01 12:05:38;;;;;;;;;;;5.60;99.90;;;;;;5051739;28;19928;-89
2022/12/01 12:11:54;;;;;;;;;;;5.60;99.90;;;;;;5083542;28;19931;-87
2022/12/01 12:14:48;;;;;;;;;;;5.60;99.90;;;;;;5074288;28;19924;-87
2022/12/01 12:20:57;;;;;;;;;;;5.40;99.90;;;;;;5050621;28;19974;-86
2022/12/01 12:24:15;;;;;;;;;;;;;;;;;;;;;
2022/12/01 12:27:12;;;;;;;;;;;6.00;99.90;;;;;;5050790;28;19986;-87
2022/12/01 12:30:02;;;;;;;;;;;;;;;;;;;;;
2022/12/01 12:33:26;;;;;;;;;;;6.00;99.90;;;;;;5030706;28;20055;-86
2022/12/01 12:36:44;;;;;;;;;;;6.00;99.90;;;;;;5045036;28;19970;-89
2022/12/01 12:39:18;;;;;;;;;;;6.10;99.90;;;;;;5015936;28;19929;-86
2022/12/01 12:42:07;;;;;;;;;;;6.10;99.90;;;;;;5051319;28;19971;-86
2022/12/01 12:44:57;;;;;;;;;;;;;;;;;;;;;
2022/12/01 12:47:49;;;;;;;;;;;6.00;99.90;;;;;;5034960;28;19925;-86
2022/12/01 12:50:57;;;;;;;;;;;6.00;99.90;;;;;;5034774;28;20027;-86
2022/12/01 12:53:42;;;;;;;;;;;5.90;99.90;;;;;;5034405;28;19932;-87
2022/12/01 12:57:20;;;;;;;;;;;;;;;;;;;;;
2022/12/01 13:00:28;;;;;;;;;;;5.90;99.90;;;;;;5028224;28;19925;-88
2022/12/01 13:03:23;;;;;;;;;;;6.00;99.90;;;;;;5033633;28;19931;-86
2022/12/01 13:06:03;;;;;;;;;;;6.00;99.90;;;;;;5053563;28;19925;-86
2022/12/01 13:08:37;;;;;;;;;;;5.90;99.90;;;;;;5053700;28;19975;-86
2022/12/01 13:11:10;;;;;;;;;;;6.00;99.90;;;;;;5037471;28;19976;-87
2022/12/01 13:14:03;;;;;;;;;;;6.00;99.90;;;;;;5036566;28;19963;-87
2022/12/01 13:16:46;;;;;;;;;;;5.90;99.90;;;;;;5037556;28;19924;-86
2022/12/01 13:19:17;;;;;;;;;;;6.30;99.90;;;;;;5020548;28;19957;-85
2022/12/01 13:22:01;;;;;;;;;;;5.80;99.90;;;;;;5094284;28;19981;-87
2022/12/01 13:25:10;;;;;;;;;;;5.80;99.90;;;;;;5096508;28;19947;-87
2022/12/01 13:27:58;;;;;;;;;;;5.80;99.90;;;;;;5092031;28;19938;-89
2022/12/01 13:30:39;;;;;;;;;;;;;;;;;;;;;
2022/12/01 13:36:11;;;;;;;;;;;5.70;99.90;;;;;;5118374;28;19912;-87
2022/12/01 13:38:53;;;;;;;;;;;6.00;99.90;;;;;;5097179;28;19924;-89
2022/12/01 13:41:37;;;;;;;;;;;5.70;99.90;;;;;;5076768;28;19925;-87
2022/12/01 13:44:32;;;;;;;;;;;5.70;99.90;;;;;;5097472;28;19934;-88
2022/12/01 13:47:14;;;;;;;;;;;5.70;99.90;;;;;;5080523;28;20399;-87
2022/12/01 13:53:21;;;;;;;;;;;;;;;;;;;;;
2022/12/01 13:56:03;;;;;;;;;;;5.60;99.90;;;;;;5094182;28;19935;-88
2022/12/01 13:58:37;;;;;;;;;;;4.90;99.90;;;;;;5078749;28;19964;-87
2022/12/01 14:01:23;;;;;;;;;;;5.60;99.90;;;;;;5092263;28;19953;-87
2022/12/01 14:04:23;;;;;;;;;;;5.60;99.90;;;;;;5077453;28;20265;-87
2022/12/01 14:07:14;;;;;;;;;;;5.50;99.90;;;;;;5077715;28;19928;-88
2022/12/01 14:09:51;;;;;;;;;;;6.80;99.90;;;;;;5076926;28;20284;-87
2022/12/01 14:12:33;;;;;;;;;;;5.60;99.90;;;;;;5093706;28;20380;-88
2022/12/01 14:15:22;;;;;;;;;;;5.80;99.90;;;;;;5093234;28;20382;-87
2022/12/01 14:18:08;;;;;;;;;;;5.60;99.90;;;;;;5077533;28;19924;-88
2022/12/01 14:20:49;;;;;;;;;;;5.60;99.90;;;;;;5061232;28;19924;-87
2022/12/01 14:23:27;;;;;;;;;;;5.10;99.90;;;;;;5093825;28;20312;-87
2022/12/01 14:26:01;;;;;;;;;;;5.50;99.90;;;;;;5076684;28;20056;-88
2022/12/01 14:28:47;;;;;;;;;;;5.50;99.90;;;;;;5076351;28;19930;-87
2022/12/01 14:34:40;;;;;;;;;;;6.30;99.90;;;;;;5094391;28;19924;-87
2022/12/01 14:37:18;;;;;;;;;;;5.50;99.90;;;;;;5033617;28;19939;-87
2022/12/01 14:40:05;;;;;;;;;;;5.50;99.90;;;;;;5089858;28;20023;-87
2022/12/01 14:45:55;;;;;;;;;;;5.40;99.90;;;;;;5094232;28;19924;-87
2022/12/01 14:48:39;;;;;;;;;;;5.40;99.90;;;;;;5093206;28;19924;-88
2022/12/01 14:51:23;;;;;;;;;;;5.30;99.90;;;;;;5076603;28;20390;-89
2022/12/01 14:53:55;;;;;;;;;;;5.00;99.90;;;;;;5076867;28;20014;-88
2022/12/01 14:56:23;;;;;;;;;;;5.30;99.90;;;;;;5076518;28;20428;-86
2022/12/01 15:02:07;;;;;;;;;;;5.30;99.90;;;;;;5081219;28;19927;-87
2022/12/01 15:04:37;;;;;;;;;;;5.30;99.90;;;;;;5076197;28;19971;-86
2022/12/01 15:07:05;;;;;;;;;;;5.30;99.90;;;;;;5076184;28;20033;-87
2022/12/01 15:09:56;;;;;;;;;;;5.20;99.90;;;;;;5076978;28;19924;-87
2022/12/01 15:12:30;;;;;;;;;;;5.20;99.90;;;;;;5075812;28;19924;-87
2022/12/01 15:15:01;;;;;;;;;;;5.20;99.90;;;;;;5076197;28;19924;-87
2022/12/01 15:17:37;;;;;;;;;;;6.10;99.90;;;;;;5075788;28;19931;-87
2022/12/01 15:20:28;;;;;;;;;;;6.20;99.90;;;;;;5060787;28;20014;-88
2022/12/01 15:22:57;;;;;;;;;;;4.40;99.90;;;;;;5076390;28;19924;-87
2022/12/01 15:25:35;;;;;;;;;;;5.30;99.90;;;;;;5075827;28;19998;-88
2022/12/01 15:28:27;;;;;;;;;;;5.10;99.90;;;;;;5075581;28;19931;-88
2022/12/01 15:31:01;;;;;;;;;;;5.10;99.90;;;;;;5065657;28;19923;-88
2022/12/01 15:33:54;;;;;;;;;;;5.10;99.90;;;;;;5059192;28;19946;-87
2022/12/01 15:36:24;;;;;;;;;;;5.20;99.90;;;;;;5073232;28;19977;-88
2022/12/01 15:39:00;;;;;;;;;;;5.00;99.90;;;;;;5075045;28;19924;-87
2022/12/01 15:41:39;;;;;;;;;;;5.00;99.90;;;;;;5090806;28;20353;-87
2022/12/01 15:44:18;;;;;;;;;;;5.90;99.90;;;;;;5075850;28;19930;-88
2022/12/01 15:46:44;;;;;;;;;;;5.00;99.90;;;;;;5060906;28;19981;-87
2022/12/01 15:49:15;;;;;;;;;;;4.90;99.90;;;;;;5075080;28;19924;-89
2022/12/01 15:51:43;;;;;;;;;;;4.90;99.90;;;;;;5075640;28;20011;-88
2022/12/01 15:54:32;;;;;;;;;;;4.90;99.90;;;;;;5092592;28;19924;-87
2022/12/01 15:56:58;;;;;;;;;;;4.90;99.90;;;;;;5074653;28;19939;-88
2022/12/01 15:59:50;;;;;;;;;;;5.10;99.90;;;;;;5075397;28;19967;-87
2022/12/01 16:02:34;;;;;;;;;;;4.90;99.90;;;;;;5075342;28;20265;-88
2022/12/01 16:08:32;;;;;;;;;;;4.70;99.90;;;;;;5077218;28;19928;-86
2022/12/01 16:11:17;;;;;;;;;;;4.80;99.90;;;;;;5041060;28;19924;-88
2022/12/01 16:13:45;;;;;;;;;;;4.80;99.90;;;;;;5035455;28;19924;-87
2022/12/01 16:16:25;;;;;;;;;;;5.70;99.90;;;;;;5051984;28;19924;-88
2022/12/01 16:18:56;;;;;;;;;;;4.70;99.90;;;;;;5035584;28;20284;-88
2022/12/01 16:21:22;;;;;;;;;;;4.70;99.90;;;;;;5052211;28;19931;-88
2022/12/01 16:23:48;;;;;;;;;;;5.10;99.90;;;;;;5035152;28;20027;-88
2022/12/01 16:26:14;;;;;;;;;;;4.70;99.90;;;;;;5035650;28;20020;-88
2022/12/01 16:28:41;;;;;;;;;;;5.10;99.90;;;;;;5018807;28;19947;-88
2022/12/01 16:31:16;;;;;;;;;;;5.30;99.90;;;;;;5051904;28;19925;-87
2022/12/01 16:33:45;;;;;;;;;;;5.80;99.90;;;;;;5052521;28;19967;-89
2022/12/01 16:36:13;;;;;;;;;;;4.70;99.90;;;;;;5034791;28;19959;-88
2022/12/01 16:38:42;;;;;;;;;;;4.70;99.90;;;;;;5052914;28;19975;-89